»·PEaware :: N373EB KWHP-KSEZ

N373EB :: KWHP-KSEZ

FLIGHT INFORMATION

Flight Status: Arrived
Operator: Privately registered:
United States
More flights under this callsign
Pilot: Peder R. (40111)
Aircraft: BEECH AIRCRAFT DEBONAIR BONANZA
(BE33)
More flights by this aircraft type
Origin: KWHP Whiteman
United States
Destination: KSEZ Sedona
United States
More flights between these airports :: More routes between these airports
Route: WHP1 VNY TWINE V518 PMD V12 DRRTY
File this flight plan on PilotEdge
Remarks: My mid-enroute alternate is KEED. At KSEZ. I will probably do a CTL NW for runway 21.
Altitude:
(Current/Filed)
11,000ft
Speed:
(Current/Filed)
155kts
Departed: 26-Oct-23 10:36 AM
Arrived: 26-Oct-23 01:07 PM
Distance/Time
Traveled:
329nm/2:31
Distance/Time
To Go:
Arrived

Flight Plot

Page will automatically refresh every two minutes.

Flight plan parsing failed; only flown route is shown


Map Options




Map Legend


Flown Route
Filed Route
Departure Airport
Arrival Airport
Navaid (VOR, NDB)
Fix

Horizontal Profiles

Position Reports

Time Latitude Longitude Heading Altitude Ground
Speed
26-Oct-23 10:18 34.262098 -118.414489 318 1004ft 0kts
26-Oct-23 10:19 34.262098 -118.414489 318 1004ft 0kts
26-Oct-23 10:20 34.262098 -118.414489 318 1004ft 0kts
26-Oct-23 10:21 34.262098 -118.414489 318 1004ft 0kts
26-Oct-23 10:22 34.262098 -118.414489 318 1004ft 0kts
26-Oct-23 10:23 34.262098 -118.414489 318 1004ft 0kts
26-Oct-23 10:24 34.262098 -118.414489 318 1004ft 0kts
26-Oct-23 10:25 34.262098 -118.414489 318 1004ft 0kts
26-Oct-23 10:26 34.262098 -118.414489 318 1004ft 0kts
26-Oct-23 10:27 34.262045 -118.414737 228 1003ft 4kts
26-Oct-23 10:28 34.260517 -118.414081 138 996ft 8kts
26-Oct-23 10:29 34.257975 -118.411393 138 983ft 14kts
26-Oct-23 10:30 34.256874 -118.409991 171 976ft 0kts
26-Oct-23 10:31 34.256874 -118.409991 171 976ft 0kts
26-Oct-23 10:32 34.256765 -118.410016 188 975ft 5kts
26-Oct-23 10:33 34.255644 -118.408944 146 970ft 0kts
26-Oct-23 10:34 34.255746 -118.409730 318 971ft 32kts
26-Oct-23 10:35 34.272077 -118.429888 282 1638ft 98kts
26-Oct-23 10:36 34.273852 -118.463616 273 2575ft 101kts
26-Oct-23 10:37 34.276883 -118.499251 289 3367ft 107kts
26-Oct-23 10:38 34.297782 -118.524048 333 4240ft 104kts
26-Oct-23 10:39 34.315432 -118.549236 245 5013ft 121kts
26-Oct-23 10:40 34.288595 -118.548258 129 5803ft 111kts
26-Oct-23 10:41 34.264270 -118.525114 143 6569ft 113kts
26-Oct-23 10:42 34.238138 -118.504350 135 7289ft 111kts
26-Oct-23 10:43 34.210110 -118.488485 196 7856ft 131kts
26-Oct-23 10:44 34.208937 -118.524395 341 8381ft 123kts
26-Oct-23 10:45 34.240721 -118.531716 352 8938ft 121kts
26-Oct-23 10:46 34.267826 -118.557723 320 9453ft 131kts
26-Oct-23 10:47 34.292990 -118.591814 315 9858ft 141kts
26-Oct-23 10:48 34.321275 -118.592159 63 10259ft 110kts
26-Oct-23 10:49 34.337133 -118.559801 66 10684ft 112kts
26-Oct-23 10:50 34.352432 -118.526344 66 11019ft 120kts
26-Oct-23 10:51 34.370747 -118.487049 65 10987ft 141kts
26-Oct-23 10:52 34.392023 -118.445436 58 10958ft 147kts
26-Oct-23 10:54 34.417346 -118.406373 57 10968ft 145kts
26-Oct-23 10:55 34.441617 -118.366959 59 10989ft 144kts
26-Oct-23 10:56 34.466427 -118.328206 56 11013ft 144kts
26-Oct-23 10:57 34.490389 -118.289072 58 11027ft 143kts
26-Oct-23 10:58 34.514896 -118.250284 59 10983ft 147kts
26-Oct-23 10:59 34.540156 -118.209644 63 11022ft 148kts
26-Oct-23 11:00 34.566492 -118.168624 60 10996ft 153kts
26-Oct-23 11:01 34.592474 -118.127095 62 11006ft 152kts
26-Oct-23 11:02 34.617403 -118.085080 62 11026ft 152kts
26-Oct-23 11:03 34.634249 -118.039528 88 11035ft 142kts
26-Oct-23 11:04 34.639135 -117.990907 88 11002ft 145kts
26-Oct-23 11:05 34.643876 -117.941822 86 10989ft 146kts
26-Oct-23 11:06 34.649468 -117.892443 86 10982ft 144kts
26-Oct-23 11:07 34.655691 -117.843609 87 10981ft 144kts
26-Oct-23 11:08 34.660628 -117.794583 89 10985ft 143kts
26-Oct-23 11:09 34.666068 -117.745699 88 10988ft 143kts
26-Oct-23 11:10 34.671548 -117.696935 88 10992ft 143kts
26-Oct-23 11:11 34.676548 -117.648286 88 11005ft 142kts
26-Oct-23 11:12 34.681454 -117.599856 88 11018ft 142kts
26-Oct-23 11:13 34.686488 -117.550807 88 10945ft 146kts
26-Oct-23 11:14 34.691875 -117.501305 88 10941ft 144kts
26-Oct-23 11:15 34.696605 -117.453067 84 10936ft 139kts
26-Oct-23 11:16 34.701423 -117.406235 84 10934ft 136kts
26-Oct-23 11:17 34.706277 -117.359724 84 10930ft 136kts
26-Oct-23 11:18 34.711101 -117.313305 84 10934ft 136kts
26-Oct-23 11:19 34.716696 -117.266731 83 10932ft 138kts
26-Oct-23 11:19 34.721244 -117.227146 84 10931ft 140kts
26-Oct-23 11:20 34.726053 -117.179321 84 10930ft 141kts
26-Oct-23 11:22 34.731749 -117.123007 84 10930ft 141kts
26-Oct-23 11:23 34.736646 -117.074643 84 10930ft 142kts
26-Oct-23 11:23 34.741430 -117.033410 88 10931ft 148kts
26-Oct-23 11:24 34.745518 -116.981637 89 10930ft 153kts
26-Oct-23 11:25 34.750370 -116.928451 87 10930ft 157kts
26-Oct-23 11:26 34.755811 -116.874186 86 10930ft 159kts
26-Oct-23 11:28 34.762008 -116.810167 86 10930ft 160kts
26-Oct-23 11:28 34.767044 -116.764470 85 10930ft 160kts
26-Oct-23 11:29 34.773317 -116.709532 85 10929ft 160kts
26-Oct-23 11:30 34.779195 -116.655367 86 10998ft 158kts
26-Oct-23 11:31 34.784467 -116.600759 86 10998ft 160kts
26-Oct-23 11:32 34.789248 -116.545895 87 10998ft 160kts
26-Oct-23 11:33 34.793817 -116.490940 87 10998ft 160kts
26-Oct-23 11:34 34.796258 -116.435855 92 10998ft 159kts
26-Oct-23 11:35 34.796173 -116.380764 93 11001ft 159kts
26-Oct-23 11:36 34.795510 -116.326077 94 11014ft 159kts
26-Oct-23 11:37 34.794782 -116.271171 94 11026ft 159kts
26-Oct-23 11:38 34.793882 -116.216139 93 11039ft 159kts
26-Oct-23 11:39 34.793220 -116.161167 91 11051ft 157kts
26-Oct-23 11:40 34.792808 -116.107030 91 11053ft 157kts
26-Oct-23 11:41 34.792393 -116.052903 91 11053ft 156kts
26-Oct-23 11:42 34.791995 -115.999047 91 11053ft 156kts
26-Oct-23 11:43 34.791605 -115.944892 91 11053ft 156kts
26-Oct-23 11:44 34.791235 -115.890980 91 11053ft 156kts
26-Oct-23 11:45 34.790865 -115.836577 91 11053ft 156kts
26-Oct-23 11:46 34.790511 -115.782026 91 11053ft 156kts
26-Oct-23 11:47 34.789648 -115.727646 92 11053ft 156kts
26-Oct-23 11:48 34.788506 -115.673290 92 11052ft 156kts
26-Oct-23 11:49 34.787995 -115.618562 93 11031ft 160kts
26-Oct-23 11:50 34.787037 -115.563166 93 11007ft 160kts
26-Oct-23 11:51 34.786106 -115.507952 93 10984ft 160kts
26-Oct-23 11:52 34.785168 -115.452608 93 10961ft 160kts
26-Oct-23 11:53 34.784207 -115.397501 93 10952ft 159kts
26-Oct-23 11:54 34.783099 -115.342871 93 10953ft 159kts
26-Oct-23 11:55 34.782091 -115.288195 93 10953ft 159kts
26-Oct-23 11:56 34.781118 -115.233334 93 10953ft 159kts
26-Oct-23 11:57 34.780164 -115.178466 93 10953ft 159kts
26-Oct-23 11:58 34.779256 -115.123668 93 10953ft 159kts
26-Oct-23 11:59 34.778259 -115.068318 93 10953ft 160kts
26-Oct-23 12:00 34.777256 -115.012998 93 10953ft 161kts
26-Oct-23 12:01 34.776177 -114.957303 93 10953ft 162kts
26-Oct-23 12:02 34.775043 -114.901465 93 10953ft 162kts
26-Oct-23 12:03 34.773903 -114.845619 93 10952ft 162kts
26-Oct-23 12:04 34.772773 -114.789619 93 10952ft 162kts
26-Oct-23 12:05 34.771656 -114.733734 93 10953ft 162kts
26-Oct-23 12:06 34.770572 -114.677736 93 10952ft 162kts
26-Oct-23 12:07 34.769480 -114.621804 93 10952ft 162kts
26-Oct-23 12:08 34.768395 -114.565849 93 10952ft 162kts
26-Oct-23 12:09 34.767368 -114.509643 93 10952ft 162kts
26-Oct-23 12:10 34.765585 -114.453649 94 10952ft 162kts
26-Oct-23 12:11 34.763742 -114.397661 94 10931ft 163kts
26-Oct-23 12:12 34.761857 -114.341449 94 10912ft 163kts
26-Oct-23 12:13 34.760370 -114.285269 93 10909ft 162kts
26-Oct-23 12:14 34.759327 -114.229305 92 10907ft 162kts
26-Oct-23 12:15 34.758982 -114.173377 92 10912ft 162kts
26-Oct-23 12:16 34.757681 -114.117608 94 10917ft 162kts
26-Oct-23 12:17 34.755996 -114.061662 94 10921ft 162kts
26-Oct-23 12:18 34.754122 -114.005781 94 10925ft 162kts
26-Oct-23 12:19 34.752296 -113.949859 94 10938ft 162kts
26-Oct-23 12:20 34.750572 -113.894137 94 10955ft 162kts
26-Oct-23 12:21 34.748993 -113.838226 94 10971ft 162kts
26-Oct-23 12:22 34.747528 -113.782432 94 10989ft 162kts
26-Oct-23 12:23 34.746144 -113.726296 94 10998ft 162kts
26-Oct-23 12:24 34.744594 -113.670150 94 10998ft 162kts
26-Oct-23 12:25 34.742798 -113.614146 94 10998ft 162kts
26-Oct-23 12:26 34.740967 -113.557893 94 10998ft 162kts
26-Oct-23 12:27 34.739218 -113.501855 94 10998ft 162kts
26-Oct-23 12:28 34.737006 -113.446117 95 11003ft 162kts
26-Oct-23 12:29 34.734661 -113.391830 92 11003ft 163kts
26-Oct-23 12:30 34.732781 -113.336127 94 11012ft 162kts
26-Oct-23 12:31 34.732956 -113.279993 90 11002ft 163kts
26-Oct-23 12:32 34.730366 -113.224356 96 11017ft 162kts
26-Oct-23 12:33 34.727499 -113.167897 94 11022ft 162kts
26-Oct-23 12:34 34.726280 -113.111501 93 11035ft 162kts
26-Oct-23 12:35 34.724833 -113.054778 95 11041ft 162kts
26-Oct-23 12:36 34.722322 -112.998812 93 11069ft 162kts
26-Oct-23 12:37 34.720438 -112.942481 94 11102ft 161kts
26-Oct-23 12:38 34.718820 -112.885105 91 11004ft 167kts
26-Oct-23 12:39 34.716655 -112.828109 93 11055ft 162kts
26-Oct-23 12:40 34.712863 -112.771350 102 11015ft 163kts
26-Oct-23 12:41 34.709490 -112.714630 91 10995ft 165kts
26-Oct-23 12:42 34.709260 -112.657626 90 11009ft 163kts
26-Oct-23 12:43 34.708823 -112.600803 95 10995ft 164kts
26-Oct-23 12:44 34.705253 -112.544354 95 11001ft 164kts
26-Oct-23 12:45 34.702360 -112.487511 92 11015ft 164kts
26-Oct-23 12:46 34.712661 -112.431965 77 10456ft 167kts
26-Oct-23 12:47 34.725162 -112.377217 77 10080ft 157kts
26-Oct-23 12:48 34.736374 -112.327473 77 10035ft 144kts
26-Oct-23 12:49 34.746564 -112.279908 79 9984ft 140kts
26-Oct-23 12:50 34.756415 -112.233088 76 9956ft 140kts
26-Oct-23 12:51 34.764760 -112.186430 109 9846ft 141kts
26-Oct-23 12:52 34.741960 -112.148676 127 9632ft 131kts
26-Oct-23 12:53 34.719146 -112.112232 128 9490ft 132kts
26-Oct-23 12:54 34.696223 -112.076365 128 9495ft 129kts
26-Oct-23 12:55 34.675242 -112.041350 131 9541ft 121kts
26-Oct-23 12:56 34.673319 -112.004306 47 9372ft 134kts
26-Oct-23 12:57 34.702902 -111.969829 47 8619ft 158kts
26-Oct-23 12:58 34.735841 -111.928504 48 7663ft 162kts
26-Oct-23 12:59 34.762680 -111.895511 44 7083ft 120kts
26-Oct-23 13:00 34.786915 -111.865182 46 6388ft 123kts
26-Oct-23 13:01 34.811066 -111.835376 47 5982ft 110kts
26-Oct-23 13:02 34.826801 -111.800147 77 5757ft 117kts
26-Oct-23 13:03 34.843454 -111.771219 42 5669ft 100kts
26-Oct-23 13:04 34.866057 -111.761231 294 5715ft 106kts
26-Oct-23 13:05 34.850093 -111.786518 224 4768ft 74kts
26-Oct-23 13:06 34.848060 -111.789886 317 4750ft 0kts
26-Oct-23 13:07 34.848061 -111.789887 317 4750ft 0kts
26-Oct-23 13:08 34.849104 -111.789835 314 4760ft 1kts

Navigation Log

Ident Type
Flight plan parsing failed, navigation log unavailable